Time;durP1;ratioP1;P1;durP2;ratioP2;P2;SDS_P1;SDS_P2;PMS_P1;PMS_P2;Temp;Humidity;BMP_temperature;BMP_pressure;BME280_temperature;BME280_humidity;BME280_pressure;Samples;Min_cycle;Max_cycle;Signal;HPM_P1;HPM_P2
2021/06/27 00:00:31;;;;;;;14.68;12.02;;;19.00;81.10;;;;;;4925305;29;20047;-67
2021/06/27 00:02:57;;;;;;;17.73;11.93;;;18.90;81.30;;;;;;4941452;29;20654;-67
2021/06/27 00:05:25;;;;;;;19.17;14.57;;;19.00;81.50;;;;;;4940669;29;20043;-67
2021/06/27 00:07:51;;;;;;;17.40;14.38;;;19.10;81.10;;;;;;4940593;29;20043;-67
2021/06/27 00:10:22;;;;;;;19.15;12.90;;;19.00;80.90;;;;;;4941315;29;20071;-67
2021/06/27 00:12:48;;;;;;;19.73;14.82;;;18.90;81.50;;;;;;4942548;29;20562;-67
2021/06/27 00:15:22;;;;;;;19.05;15.52;;;18.80;81.50;;;;;;4925153;29;20078;-71
2021/06/27 00:17:49;;;;;;;20.77;15.85;;;18.80;81.80;;;;;;4925206;29;20463;-67
2021/06/27 00:20:19;;;;;;;22.27;15.25;;;18.70;82.00;;;;;;4943255;29;20373;-67
2021/06/27 00:22:45;;;;;;;19.35;15.05;;;18.60;82.50;;;;;;4940769;29;20038;-67
2021/06/27 00:25:13;;;;;;;20.38;16.30;;;18.50;82.90;;;;;;4940921;29;20039;-67
2021/06/27 00:27:40;;;;;;;22.05;16.15;;;18.40;83.40;;;;;;4940729;29;20668;-67
2021/06/27 00:30:09;;;;;;;19.40;13.48;;;18.40;83.80;;;;;;4939660;29;20117;-67
2021/06/27 00:32:36;;;;;;;20.73;15.15;;;18.30;84.20;;;;;;4940926;29;20056;-66
2021/06/27 00:35:05;;;;;;;21.17;14.57;;;18.30;84.30;;;;;;4941581;29;20043;-67
2021/06/27 00:37:30;;;;;;;17.40;12.10;;;18.20;84.40;;;;;;4941043;29;20055;-67
2021/06/27 00:39:56;;;;;;;16.48;13.20;;;18.20;84.80;;;;;;4940138;29;20376;-67
2021/06/27 00:42:22;;;;;;;20.83;16.15;;;18.10;84.90;;;;;;4940822;29;20058;-67
2021/06/27 00:44:48;;;;;;;19.67;14.70;;;18.10;85.20;;;;;;4940144;29;20031;-67
2021/06/27 00:47:29;;;;;;;26.90;16.45;;;18.10;85.40;;;;;;4941899;29;20109;-67
2021/06/27 00:49:57;;;;;;;16.42;11.77;;;18.00;85.40;;;;;;4940408;29;20050;-67
2021/06/27 00:52:23;;;;;;;26.80;17.38;;;18.00;86.40;;;;;;4940232;29;20039;-67
2021/06/27 00:54:49;;;;;;;13.25;10.45;;;18.00;86.20;;;;;;4939758;28;20142;-67
2021/06/27 00:57:15;;;;;;;15.43;10.75;;;18.00;86.50;;;;;;4939501;29;20039;-67
2021/06/27 00:59:42;;;;;;;22.10;14.77;;;18.00;86.60;;;;;;4939735;29;20103;-67
2021/06/27 01:02:07;;;;;;;19.92;14.57;;;18.00;86.40;;;;;;4939519;29;20043;-67
2021/06/27 01:04:36;;;;;;;25.35;15.48;;;18.00;86.40;;;;;;4940851;28;20094;-67
2021/06/27 01:07:01;;;;;;;22.60;15.50;;;18.00;86.50;;;;;;4939980;29;20050;-66
2021/06/27 01:09:27;;;;;;;22.27;15.48;;;18.00;86.50;;;;;;4940925;29;20036;-66
2021/06/27 01:11:53;;;;;;;25.73;15.48;;;17.90;86.60;;;;;;4940891;29;20595;-66
2021/06/27 01:14:20;;;;;;;21.10;15.50;;;17.90;86.90;;;;;;4939333;29;20132;-67
2021/06/27 01:16:46;;;;;;;20.45;15.40;;;17.90;87.20;;;;;;4938007;28;20055;-66
2021/06/27 01:19:11;;;;;;;20.48;15.13;;;17.90;87.20;;;;;;4939500;29;20101;-67
2021/06/27 01:21:37;;;;;;;24.67;17.25;;;17.80;87.50;;;;;;4923460;29;20047;-67
2021/06/27 01:24:04;;;;;;;24.77;16.33;;;17.80;87.80;;;;;;4938986;29;20047;-67
2021/06/27 01:26:30;;;;;;;25.88;16.58;;;17.80;87.80;;;;;;4921205;29;20110;-67
2021/06/27 01:28:58;;;;;;;22.55;15.88;;;17.70;87.90;;;;;;4941585;29;20090;-66
2021/06/27 01:31:25;;;;;;;25.13;15.77;;;17.70;88.30;;;;;;4938929;29;20039;-66
2021/06/27 01:33:51;;;;;;;22.27;15.23;;;17.60;88.30;;;;;;4939295;29;20047;-67
2021/06/27 01:36:17;;;;;;;24.67;17.10;;;17.50;88.50;;;;;;4906343;29;20058;-67
2021/06/27 01:38:43;;;;;;;18.92;13.63;;;17.50;88.80;;;;;;4940884;29;20088;-66
2021/06/27 01:41:09;;;;;;;19.45;14.63;;;17.50;89.00;;;;;;4938177;29;20040;-67
2021/06/27 01:43:35;;;;;;;20.10;16.52;;;17.50;89.00;;;;;;4940029;29;20393;-67
2021/06/27 01:46:02;;;;;;;11.20;8.95;;;17.50;89.00;;;;;;4941122;29;20120;-67
2021/06/27 01:48:33;;;;;;;11.32;8.88;;;17.50;89.20;;;;;;4938698;29;20047;-66
2021/06/27 01:51:02;;;;;;;21.75;15.65;;;17.70;89.50;;;;;;4940008;29;21294;-67
2021/06/27 01:53:32;;;;;;;13.70;10.82;;;17.90;88.90;;;;;;4938598;29;20038;-66
2021/06/27 01:56:06;;;;;;;22.88;16.95;;;18.10;88.40;;;;;;4938275;29;20047;-67
2021/06/27 01:58:41;;;;;;;23.02;17.40;;;18.20;87.80;;;;;;4939461;29;20175;-67
2021/06/27 02:01:14;;;;;;;20.05;14.50;;;18.10;87.30;;;;;;4939965;29;20047;-67
2021/06/27 02:03:40;;;;;;;17.00;13.40;;;18.00;87.60;;;;;;4939049;29;20057;-66
2021/06/27 02:06:08;;;;;;;26.05;17.50;;;18.10;87.80;;;;;;4938893;29;20803;-66
2021/06/27 02:08:36;;;;;;;22.73;16.50;;;18.10;87.50;;;;;;4939198;29;20043;-66
2021/06/27 02:11:03;;;;;;;22.50;15.82;;;18.10;87.40;;;;;;4922560;29;20443;-66
2021/06/27 02:13:29;;;;;;;20.25;14.57;;;18.00;87.30;;;;;;4939663;29;20051;-67
2021/06/27 02:15:55;;;;;;;21.13;15.45;;;18.00;87.30;;;;;;4922457;29;20102;-67
2021/06/27 02:18:34;;;;;;;25.92;17.90;;;18.00;87.50;;;;;;4940067;29;20079;-67
2021/06/27 02:21:04;;;;;;;18.80;13.63;;;18.00;87.50;;;;;;4939468;29;20039;-66
2021/06/27 02:23:30;;;;;;;24.92;17.42;;;17.90;87.90;;;;;;4937978;29;20046;-66
2021/06/27 02:25:56;;;;;;;23.50;17.92;;;17.90;88.00;;;;;;4937080;29;20035;-66
2021/06/27 02:28:24;;;;;;;14.38;9.82;;;17.90;87.80;;;;;;4939372;29;20094;-65
2021/06/27 02:30:51;;;;;;;21.80;15.57;;;17.90;88.10;;;;;;4939314;29;20044;-66
2021/06/27 02:33:18;;;;;;;21.60;15.65;;;17.90;88.20;;;;;;4939294;29;21074;-66
2021/06/27 02:35:45;;;;;;;19.80;12.82;;;17.90;87.90;;;;;;4938607;29;20039;-66
2021/06/27 02:38:13;;;;;;;17.27;12.13;;;17.90;88.10;;;;;;4937534;29;20041;-66
2021/06/27 02:40:40;;;;;;;16.63;11.80;;;18.00;88.00;;;;;;4938900;29;20035;-66
2021/06/27 02:43:06;;;;;;;13.90;10.77;;;18.10;88.50;;;;;;4922206;29;20533;-65
2021/06/27 02:45:33;;;;;;;10.65;8.38;;;18.20;87.80;;;;;;4922100;29;20043;-65
2021/06/27 02:47:59;;;;;;;13.35;9.02;;;18.30;87.80;;;;;;4938185;29;20066;-65
2021/06/27 02:50:25;;;;;;;16.83;11.93;;;18.40;87.20;;;;;;4939882;29;20067;-65
2021/06/27 02:52:51;;;;;;;17.40;13.82;;;18.40;86.70;;;;;;4932272;29;20054;-65
2021/06/27 02:55:17;;;;;;;15.52;13.27;;;18.40;86.40;;;;;;4937159;29;20404;-65
2021/06/27 02:57:43;;;;;;;13.00;9.55;;;18.50;86.10;;;;;;4920964;29;20618;-65
2021/06/27 03:00:15;;;;;;;17.35;11.85;;;18.40;86.10;;;;;;4938216;29;20046;-65
2021/06/27 03:02:41;;;;;;;20.92;14.15;;;18.40;86.20;;;;;;4938253;29;22228;-64
2021/06/27 03:05:09;;;;;;;15.00;11.48;;;18.40;86.10;;;;;;4939299;29;20040;-65
2021/06/27 03:07:35;;;;;;;18.45;13.40;;;18.40;86.10;;;;;;4921033;29;20046;-65
2021/06/27 03:10:03;;;;;;;19.73;14.55;;;18.30;85.80;;;;;;4937595;29;20046;-65
2021/06/27 03:12:29;;;;;;;15.65;9.55;;;18.30;85.80;;;;;;4938368;29;20039;-65
2021/06/27 03:14:55;;;;;;;18.88;14.07;;;18.30;86.40;;;;;;4939593;29;20039;-65
2021/06/27 03:17:21;;;;;;;14.10;9.98;;;18.30;85.80;;;;;;4923491;29;20039;-65
2021/06/27 03:19:47;;;;;;;16.85;13.93;;;18.20;85.90;;;;;;4943109;29;20039;-65
2021/06/27 03:22:13;;;;;;;13.90;10.43;;;18.20;86.40;;;;;;4942636;29;20090;-65
2021/06/27 03:24:39;;;;;;;14.70;10.98;;;18.10;86.50;;;;;;4942113;29;20803;-65
2021/06/27 03:27:05;;;;;;;10.20;7.85;;;18.20;86.50;;;;;;4941342;29;20102;-65
2021/06/27 03:29:31;;;;;;;19.55;13.98;;;18.30;86.60;;;;;;4941827;29;20097;-66
2021/06/27 03:31:57;;;;;;;18.05;12.50;;;18.40;86.10;;;;;;4925867;29;20039;-65
2021/06/27 03:34:23;;;;;;;18.27;13.93;;;18.30;86.00;;;;;;4944024;28;20049;-66
2021/06/27 03:36:49;;;;;;;21.45;15.00;;;18.20;85.90;;;;;;4940675;29;20048;-65
2021/06/27 03:39:18;;;;;;;17.83;9.93;;;18.10;86.00;;;;;;4942492;29;20040;-65
2021/06/27 03:41:55;;;;;;;14.95;11.00;;;18.00;86.60;;;;;;4940292;29;20122;-65
2021/06/27 03:44:22;;;;;;;12.15;10.73;;;18.10;86.80;;;;;;4940673;29;20580;-65
2021/06/27 03:46:48;;;;;;;13.73;10.75;;;18.20;86.90;;;;;;4942462;29;20110;-65
2021/06/27 03:49:14;;;;;;;20.08;14.77;;;18.20;86.80;;;;;;4925162;29;20407;-65
2021/06/27 03:51:42;;;;;;;12.27;8.95;;;18.30;86.10;;;;;;4942094;29;20091;-65
2021/06/27 03:54:09;;;;;;;12.32;10.35;;;18.30;86.40;;;;;;4942343;29;20421;-65
2021/06/27 03:56:35;;;;;;;16.77;13.18;;;18.20;86.30;;;;;;4941346;29;20170;-65
2021/06/27 03:59:03;;;;;;;12.60;9.90;;;18.20;85.90;;;;;;4940871;29;20065;-65
2021/06/27 04:01:29;;;;;;;13.13;10.43;;;18.10;85.90;;;;;;4941962;29;20043;-65
2021/06/27 04:03:55;;;;;;;16.00;12.00;;;18.10;86.40;;;;;;4941987;28;20227;-65
2021/06/27 04:06:21;;;;;;;14.65;9.90;;;18.10;86.40;;;;;;4941905;29;20043;-65
2021/06/27 04:08:47;;;;;;;22.88;15.52;;;18.00;86.50;;;;;;4942602;29;20039;-65
2021/06/27 04:11:13;;;;;;;15.82;11.25;;;17.90;86.60;;;;;;4941200;29;20042;-65
2021/06/27 04:13:40;;;;;;;9.85;6.32;;;17.90;87.30;;;;;;4923941;29;20032;-65
2021/06/27 04:16:06;;;;;;;15.80;11.35;;;17.90;87.40;;;;;;4940878;29;20089;-65
2021/06/27 04:18:34;;;;;;;13.02;9.10;;;18.10;86.90;;;;;;4943476;29;20532;-65
2021/06/27 04:21:00;;;;;;;12.90;6.15;;;18.10;86.80;;;;;;4939068;29;20043;-65
2021/06/27 04:23:28;;;;;;;12.70;8.23;;;18.20;86.80;;;;;;4941145;29;20035;-65
2021/06/27 04:25:54;;;;;;;15.60;11.57;;;18.30;86.50;;;;;;4942902;29;20503;-65
2021/06/27 04:28:20;;;;;;;9.98;6.28;;;18.30;86.00;;;;;;4938027;28;20047;-65
2021/06/27 04:30:46;;;;;;;12.80;10.18;;;18.30;86.30;;;;;;4924477;29;20086;-65
2021/06/27 04:33:12;;;;;;;14.20;11.75;;;18.40;86.20;;;;;;4939972;29;20094;-65
2021/06/27 04:35:40;;;;;;;12.52;10.95;;;18.30;85.70;;;;;;4939715;29;20071;-65
2021/06/27 04:38:08;;;;;;;15.25;9.93;;;18.30;85.70;;;;;;4922375;29;20103;-65
2021/06/27 04:40:35;;;;;;;16.58;10.07;;;18.20;86.20;;;;;;4941105;29;20107;-65
2021/06/27 04:43:02;;;;;;;16.77;10.75;;;18.20;86.20;;;;;;4907235;29;20393;-65
2021/06/27 04:45:28;;;;;;;15.43;10.93;;;18.20;86.00;;;;;;4940754;29;20035;-65
2021/06/27 04:47:54;;;;;;;14.52;9.63;;;18.10;86.20;;;;;;4941815;29;21341;-65
2021/06/27 04:50:19;;;;;;;16.90;11.70;;;18.00;86.10;;;;;;4940076;29;20043;-65
2021/06/27 04:52:51;;;;;;;13.77;10.65;;;18.00;86.30;;;;;;4939933;29;20041;-65
2021/06/27 04:55:18;;;;;;;16.52;11.27;;;18.00;86.50;;;;;;4924680;29;20405;-66
2021/06/27 04:57:44;;;;;;;13.85;10.95;;;17.90;86.60;;;;;;4924974;29;20051;-64
2021/06/27 05:00:10;;;;;;;14.95;10.65;;;17.90;87.00;;;;;;4939604;29;20552;-65
2021/06/27 05:02:36;;;;;;;17.10;11.88;;;17.80;87.00;;;;;;4939492;28;20043;-64
2021/06/27 05:05:04;;;;;;;16.25;10.57;;;17.80;87.30;;;;;;4923118;29;20094;-64
2021/06/27 05:07:30;;;;;;;13.25;11.43;;;17.70;87.60;;;;;;4939577;29;20121;-64
2021/06/27 05:09:57;;;;;;;16.13;12.18;;;17.60;87.80;;;;;;4939731;29;20079;-65
2021/06/27 05:12:27;;;;;;;15.48;11.15;;;17.60;88.20;;;;;;4941539;29;20038;-65
2021/06/27 05:14:53;;;;;;;16.98;10.30;;;17.60;88.40;;;;;;4924558;29;20421;-66
2021/06/27 05:17:20;;;;;;;18.38;12.05;;;17.60;88.40;;;;;;4939223;29;20724;-65
2021/06/27 05:19:46;;;;;;;14.88;10.52;;;17.70;88.50;;;;;;4941012;29;20526;-65
2021/06/27 05:22:12;;;;;;;12.45;9.95;;;17.60;88.50;;;;;;4941368;29;20031;-65
2021/06/27 05:24:38;;;;;;;16.33;11.80;;;17.60;88.60;;;;;;4939430;29;20035;-65
2021/06/27 05:27:05;;;;;;;16.92;11.77;;;17.60;88.60;;;;;;4922478;29;20043;-65
2021/06/27 05:29:30;;;;;;;11.18;7.90;;;17.70;88.50;;;;;;4924308;29;20050;-65
2021/06/27 05:31:56;;;;;;;16.45;10.35;;;17.70;88.60;;;;;;4939957;29;20043;-65
2021/06/27 05:34:22;;;;;;;16.52;11.40;;;17.80;88.70;;;;;;4939305;29;20086;-67
2021/06/27 05:36:48;;;;;;;17.42;11.13;;;17.80;88.80;;;;;;4922917;29;20051;-67
2021/06/27 05:39:14;;;;;;;12.50;10.10;;;17.80;88.50;;;;;;4940807;28;20086;-67
2021/06/27 05:41:42;;;;;;;16.88;11.45;;;17.80;88.50;;;;;;4923654;29;20094;-66
2021/06/27 05:44:08;;;;;;;15.57;10.88;;;17.90;88.80;;;;;;4923255;29;20063;-67
2021/06/27 05:46:34;;;;;;;17.27;11.63;;;17.90;88.70;;;;;;4939845;29;20554;-67
2021/06/27 05:49:03;;;;;;;15.10;11.55;;;18.00;88.60;;;;;;4939180;29;20079;-66
2021/06/27 05:51:29;;;;;;;14.88;10.57;;;18.00;88.60;;;;;;4938200;29;20035;-67
2021/06/27 05:53:55;;;;;;;16.88;10.73;;;18.00;88.80;;;;;;4923191;29;20045;-67
2021/06/27 05:56:21;;;;;;;16.42;12.02;;;18.10;88.70;;;;;;4940903;29;20062;-67
2021/06/27 05:58:47;;;;;;;15.95;11.95;;;18.10;88.60;;;;;;4938318;29;20388;-65
2021/06/27 06:01:15;;;;;;;18.98;12.07;;;18.20;88.60;;;;;;4939921;29;20039;-67
2021/06/27 06:03:42;;;;;;;17.20;12.65;;;18.30;88.30;;;;;;4939330;29;20130;-67
2021/06/27 06:06:12;;;;;;;16.42;11.82;;;18.30;88.20;;;;;;4937832;29;20050;-65
2021/06/27 06:08:43;;;;;;;16.80;12.50;;;18.30;88.10;;;;;;4938941;29;20043;-66
2021/06/27 06:11:14;;;;;;;18.48;13.43;;;18.30;88.20;;;;;;4939193;29;20042;-66
2021/06/27 06:13:41;;;;;;;18.98;13.63;;;18.30;88.20;;;;;;4939169;29;20040;-66
2021/06/27 06:16:08;;;;;;;14.82;11.63;;;18.30;88.20;;;;;;4938209;29;20524;-66
2021/06/27 06:18:35;;;;;;;18.42;14.27;;;18.40;88.20;;;;;;4922217;29;20134;-64
2021/06/27 06:21:01;;;;;;;16.45;12.82;;;18.40;88.10;;;;;;4941062;29;20098;-64
2021/06/27 06:23:27;;;;;;;17.70;12.88;;;18.40;88.70;;;;;;4938165;29;20035;-65
2021/06/27 06:25:53;;;;;;;17.90;13.55;;;18.40;88.10;;;;;;4938701;29;20250;-67
2021/06/27 06:28:20;;;;;;;18.08;13.77;;;18.50;88.40;;;;;;4939133;29;20098;-68
2021/06/27 06:30:46;;;;;;;16.77;12.15;;;18.50;88.40;;;;;;4939004;29;20106;-67
2021/06/27 06:33:11;;;;;;;17.50;14.15;;;18.60;88.50;;;;;;4934518;29;20035;-67
2021/06/27 06:35:38;;;;;;;16.10;13.70;;;18.60;88.40;;;;;;4940256;29;20051;-69
2021/06/27 06:38:05;;;;;;;15.70;12.23;;;18.70;88.10;;;;;;4938865;29;20098;-69
2021/06/27 06:40:31;;;;;;;15.20;13.13;;;18.70;87.80;;;;;;4938654;29;20468;-61
2021/06/27 06:42:57;;;;;;;18.17;13.38;;;18.80;87.60;;;;;;4938330;29;20043;-60
2021/06/27 06:45:23;;;;;;;17.60;13.25;;;18.70;87.10;;;;;;4939880;29;20046;-61
2021/06/27 06:47:48;;;;;;;17.25;12.60;;;18.80;86.90;;;;;;4936362;29;20043;-60
2021/06/27 06:50:14;;;;;;;18.35;13.35;;;18.80;86.90;;;;;;4939078;29;20551;-60
2021/06/27 06:52:40;;;;;;;16.00;11.70;;;18.80;86.90;;;;;;4942149;29;20125;-61
2021/06/27 06:55:06;;;;;;;16.02;12.93;;;18.80;86.90;;;;;;4924881;29;20039;-60
2021/06/27 06:57:32;;;;;;;18.77;12.82;;;18.90;86.50;;;;;;4942427;29;20946;-60
2021/06/27 06:59:58;;;;;;;14.38;11.75;;;18.90;86.60;;;;;;4941723;29;20043;-60
2021/06/27 07:02:24;;;;;;;14.48;12.38;;;19.00;86.60;;;;;;4943152;29;20039;-60
2021/06/27 07:04:50;;;;;;;14.20;12.68;;;19.10;86.60;;;;;;4941343;29;20091;-60
2021/06/27 07:07:16;;;;;;;15.93;12.90;;;19.10;86.20;;;;;;4943425;29;20119;-61
2021/06/27 07:09:42;;;;;;;15.32;11.63;;;19.30;85.90;;;;;;4941642;29;20098;-61
2021/06/27 07:12:08;;;;;;;17.38;13.50;;;19.40;85.60;;;;;;4941900;29;20035;-62
2021/06/27 07:14:34;;;;;;;13.98;12.57;;;19.50;85.20;;;;;;4925860;29;20151;-61
2021/06/27 07:17:00;;;;;;;13.98;10.88;;;19.60;84.20;;;;;;4943497;29;20126;-63
2021/06/27 07:19:25;;;;;;;14.48;10.70;;;19.60;84.10;;;;;;4943406;29;20047;-63
2021/06/27 07:21:51;;;;;;;12.88;9.77;;;19.90;83.80;;;;;;4941359;29;20094;-64
2021/06/27 07:24:17;;;;;;;12.23;10.93;;;20.10;83.40;;;;;;4942029;29;20138;-63
2021/06/27 07:26:43;;;;;;;8.82;7.93;;;20.20;82.50;;;;;;4943550;29;20149;-64
2021/06/27 07:29:10;;;;;;;9.38;8.15;;;20.50;82.00;;;;;;4941026;29;20047;-63
2021/06/27 07:31:36;;;;;;;12.05;9.63;;;20.80;81.10;;;;;;4925291;29;20043;-66
2021/06/27 07:34:02;;;;;;;13.98;10.95;;;21.20;80.10;;;;;;4942900;29;20140;-66
2021/06/27 07:36:28;;;;;;;11.50;8.05;;;21.40;79.00;;;;;;4941624;29;20476;-60
2021/06/27 07:38:57;;;;;;;10.30;9.15;;;21.60;78.70;;;;;;4942072;29;20162;-62
2021/06/27 07:41:23;;;;;;;13.25;7.43;;;21.90;77.90;;;;;;4911485;29;20126;-60
2021/06/27 07:43:50;;;;;;;10.63;8.15;;;22.20;77.30;;;;;;4942602;29;20116;-59
2021/06/27 07:46:17;;;;;;;9.25;8.27;;;22.50;76.30;;;;;;4941056;29;20036;-59
2021/06/27 07:48:43;;;;;;;23.13;16.27;;;22.80;75.30;;;;;;4943405;29;20086;-59
2021/06/27 07:51:10;;;;;;;11.27;10.07;;;22.90;75.00;;;;;;4924158;29;20114;-59
2021/06/27 07:53:36;;;;;;;10.93;9.68;;;23.20;73.80;;;;;;4943728;29;20043;-60
2021/06/27 07:56:03;;;;;;;15.32;10.52;;;23.40;73.10;;;;;;4925310;29;20066;-59
2021/06/27 07:58:29;;;;;;;9.75;8.52;;;23.50;72.50;;;;;;4941259;29;20047;-57
2021/06/27 08:00:55;;;;;;;10.93;8.35;;;23.60;72.10;;;;;;4940434;29;20046;-60
2021/06/27 08:03:21;;;;;;;10.57;9.57;;;23.60;71.50;;;;;;4940499;28;20042;-60
2021/06/27 08:05:47;;;;;;;12.23;10.18;;;23.70;71.40;;;;;;4941117;29;20038;-60
2021/06/27 08:08:14;;;;;;;11.68;9.65;;;23.70;71.30;;;;;;4940779;29;20605;-60
2021/06/27 08:10:43;;;;;;;10.38;8.68;;;23.60;71.10;;;;;;4943063;29;20484;-60
2021/06/27 08:13:10;;;;;;;10.05;9.00;;;23.70;70.60;;;;;;4942030;29;20036;-60
2021/06/27 08:15:36;;;;;;;9.50;8.35;;;23.70;70.20;;;;;;4940369;29;20035;-59
2021/06/27 08:18:02;;;;;;;11.23;9.98;;;23.80;70.20;;;;;;4923779;29;20046;-60
2021/06/27 08:20:28;;;;;;;9.27;8.02;;;24.00;69.90;;;;;;4942147;29;20066;-59
2021/06/27 08:22:54;;;;;;;8.20;6.78;;;24.20;69.30;;;;;;4923774;29;20083;-59
2021/06/27 08:25:21;;;;;;;10.00;8.07;;;24.40;69.20;;;;;;4941990;29;20070;-59
2021/06/27 08:27:50;;;;;;;12.70;10.63;;;24.60;68.30;;;;;;4942523;29;20441;-67
2021/06/27 08:30:18;;;;;;;10.10;8.95;;;24.60;67.60;;;;;;4940955;29;20186;-66
2021/06/27 08:32:45;;;;;;;12.63;11.13;;;24.50;65.30;;;;;;4940861;29;20102;-64
2021/06/27 08:35:16;;;;;;;13.00;10.65;;;24.50;65.40;;;;;;4940012;29;20551;-60
2021/06/27 08:37:43;;;;;;;12.50;11.20;;;24.40;65.60;;;;;;4939432;29;20047;-61
2021/06/27 08:40:10;;;;;;;8.00;7.20;;;24.40;65.30;;;;;;4939413;29;20063;-63
2021/06/27 08:42:36;;;;;;;10.32;9.23;;;24.40;65.50;;;;;;4939974;29;20051;-62
2021/06/27 08:45:04;;;;;;;11.15;8.95;;;24.60;65.90;;;;;;4939561;29;20444;-62
2021/06/27 08:47:30;;;;;;;10.18;8.88;;;24.60;65.90;;;;;;4940896;29;20054;-60
2021/06/27 08:49:57;;;;;;;11.27;9.13;;;24.80;65.20;;;;;;4939006;29;20652;-62
2021/06/27 08:52:23;;;;;;;10.50;9.40;;;25.00;64.70;;;;;;4940760;29;20067;-62
2021/06/27 08:54:50;;;;;;;10.25;8.98;;;25.10;64.40;;;;;;4941871;29;20035;-62
2021/06/27 08:57:17;;;;;;;13.73;10.13;;;25.20;63.70;;;;;;4940328;29;20070;-62
2021/06/27 08:59:45;;;;;;;12.20;9.93;;;25.20;63.40;;;;;;4940466;29;20047;-62
2021/06/27 09:02:12;;;;;;;9.35;8.35;;;25.20;63.70;;;;;;4922806;29;20043;-62
2021/06/27 09:04:40;;;;;;;11.45;9.80;;;25.30;63.70;;;;;;4938572;28;20027;-62
2021/06/27 09:07:30;;;;;;;10.32;9.00;;;25.30;63.20;;;;;;4941461;29;20047;-59
2021/06/27 09:10:26;;;;;;;9.70;8.30;;;25.40;63.60;;;;;;4922696;29;20502;-62
2021/06/27 09:12:59;;;;;;;10.70;8.02;;;25.60;62.80;;;;;;4907928;29;20440;-60
2021/06/27 09:15:45;;;;;;;11.15;10.05;;;25.70;62.30;;;;;;4939117;28;20106;-60
2021/06/27 09:18:14;;;;;;;9.23;7.45;;;25.70;62.10;;;;;;4940104;29;21005;-60
2021/06/27 09:20:42;;;;;;;10.70;7.25;;;25.70;61.80;;;;;;4941956;29;20099;-60
2021/06/27 09:23:09;;;;;;;10.82;8.18;;;25.80;61.80;;;;;;4939055;29;20031;-60
2021/06/27 09:25:35;;;;;;;9.18;8.20;;;25.90;61.60;;;;;;4938732;29;20485;-60
2021/06/27 09:28:07;;;;;;;9.63;8.63;;;25.90;61.30;;;;;;4938567;29;20043;-60
2021/06/27 09:30:52;;;;;;;10.20;8.88;;;25.90;61.20;;;;;;4939843;29;20039;-60
2021/06/27 09:33:21;;;;;;;10.05;8.85;;;25.90;60.90;;;;;;4938495;29;20042;-60
2021/06/27 09:35:50;;;;;;;10.80;8.20;;;25.90;61.10;;;;;;4939436;29;20094;-60
2021/06/27 09:38:17;;;;;;;8.70;6.95;;;25.90;61.30;;;;;;4940353;29;20408;-60
2021/06/27 09:40:44;;;;;;;10.85;9.70;;;26.00;61.40;;;;;;4939137;29;20130;-60
2021/06/27 09:43:10;;;;;;;10.80;8.07;;;26.10;61.00;;;;;;4938313;29;20039;-60
2021/06/27 09:45:47;;;;;;;10.30;9.25;;;26.00;61.10;;;;;;4939121;29;20035;-60
2021/06/27 09:48:13;;;;;;;9.40;7.50;;;25.90;61.70;;;;;;4939732;29;20086;-66
2021/06/27 09:50:39;;;;;;;10.40;7.72;;;25.80;61.60;;;;;;4921790;29;20134;-66
2021/06/27 09:53:05;;;;;;;8.88;6.78;;;25.90;61.10;;;;;;4923183;29;20111;-66
2021/06/27 09:55:31;;;;;;;7.80;6.47;;;26.10;60.80;;;;;;4923193;29;20047;-65
2021/06/27 09:58:16;;;;;;;11.00;7.90;;;26.30;60.70;;;;;;4941021;29;20383;-65
2021/06/27 10:00:42;;;;;;;8.00;7.20;;;26.50;60.30;;;;;;4940237;29;20070;-60
2021/06/27 10:03:11;;;;;;;13.82;8.77;;;26.40;60.60;;;;;;4938862;29;20468;-61
2021/06/27 10:05:37;;;;;;;11.38;7.05;;;26.30;59.40;;;;;;4921992;29;22206;-61
2021/06/27 10:08:02;;;;;;;8.45;7.35;;;26.20;59.70;;;;;;4920630;29;20050;-61
2021/06/27 10:10:28;;;;;;;8.52;6.57;;;26.20;59.80;;;;;;4938545;29;20185;-60
2021/06/27 10:12:54;;;;;;;7.90;7.20;;;26.30;59.60;;;;;;4922421;29;20043;-61
2021/06/27 10:15:20;;;;;;;11.00;8.18;;;26.40;59.70;;;;;;4937960;29;20058;-60
2021/06/27 10:17:46;;;;;;;11.35;9.55;;;26.30;59.10;;;;;;4938991;29;20067;-61
2021/06/27 10:20:16;;;;;;;9.55;8.55;;;26.10;59.00;;;;;;4939449;29;20090;-60
2021/06/27 10:22:43;;;;;;;10.90;7.15;;;26.10;59.90;;;;;;4939166;29;20048;-60
2021/06/27 10:25:14;;;;;;;7.68;6.85;;;26.30;60.00;;;;;;4922564;29;20512;-60
2021/06/27 10:27:40;;;;;;;9.43;7.07;;;26.30;60.50;;;;;;4942141;29;20081;-61
2021/06/27 10:30:08;;;;;;;8.45;6.93;;;26.40;59.70;;;;;;4942708;29;20059;-60
2021/06/27 10:32:44;;;;;;;8.13;6.07;;;26.40;59.60;;;;;;4944090;29;20090;-60
2021/06/27 10:35:12;;;;;;;8.13;7.28;;;26.50;59.50;;;;;;4944166;29;20182;-60
2021/06/27 10:37:41;;;;;;;9.60;6.85;;;26.50;59.30;;;;;;4942903;29;20062;-60
2021/06/27 10:40:19;;;;;;;8.60;6.78;;;26.50;59.30;;;;;;4942752;29;20047;-61
2021/06/27 10:42:53;;;;;;;7.57;6.78;;;26.60;59.30;;;;;;4924931;29;20163;-60
2021/06/27 10:45:31;;;;;;;8.32;7.03;;;26.70;59.50;;;;;;4944497;29;20432;-60
2021/06/27 10:47:58;;;;;;;7.28;6.57;;;26.70;59.00;;;;;;4941414;29;20047;-60
2021/06/27 10:50:51;;;;;;;9.70;7.07;;;26.70;58.90;;;;;;4942764;29;20156;-60
2021/06/27 10:53:17;;;;;;;10.75;7.45;;;26.70;59.00;;;;;;4943905;29;20042;-60
2021/06/27 10:55:44;;;;;;;7.63;6.82;;;26.70;58.70;;;;;;4921738;29;20472;-61
2021/06/27 10:58:13;;;;;;;10.38;6.18;;;26.60;59.00;;;;;;4923107;29;20044;-61
2021/06/27 11:00:55;;;;;;;9.23;7.10;;;26.60;59.10;;;;;;4907039;29;20046;-61
2021/06/27 11:03:28;;;;;;;7.07;6.38;;;26.50;59.00;;;;;;4923229;29;20147;-64
2021/06/27 11:05:58;;;;;;;14.95;7.70;;;26.50;59.80;;;;;;4924148;29;20040;-65
2021/06/27 11:08:35;;;;;;;7.95;7.00;;;26.30;59.60;;;;;;4924247;29;20054;-64
2021/06/27 11:11:05;;;;;;;8.55;7.78;;;26.20;59.70;;;;;;4922020;29;20047;-64
2021/06/27 11:13:31;;;;;;;9.77;8.38;;;26.10;60.00;;;;;;4923193;29;20133;-64
2021/06/27 11:15:57;;;;;;;11.85;8.52;;;26.00;59.60;;;;;;4924146;29;20039;-65
2021/06/27 11:18:39;;;;;;;11.48;7.82;;;25.90;59.70;;;;;;4923413;29;20043;-65
2021/06/27 11:21:12;;;;;;;9.23;8.20;;;25.90;59.70;;;;;;4923214;29;20082;-64
2021/06/27 11:23:53;;;;;;;8.70;7.90;;;25.70;59.50;;;;;;4899690;29;20118;-64
2021/06/27 11:26:38;;;;;;;8.40;6.90;;;25.60;59.90;;;;;;4923622;29;20078;-65
2021/06/27 11:29:23;;;;;;;7.00;6.30;;;25.60;60.20;;;;;;4915735;29;20062;-64
2021/06/27 11:31:51;;;;;;;8.00;7.20;;;25.50;60.70;;;;;;4916822;29;20493;-64
2021/06/27 11:34:20;;;;;;;8.13;7.32;;;25.40;60.40;;;;;;4924484;29;20122;-64
2021/06/27 11:36:54;;;;;;;6.57;5.97;;;25.30;60.30;;;;;;4922378;29;20032;-64
2021/06/27 11:39:44;;;;;;;7.38;6.68;;;25.30;61.00;;;;;;4922001;29;20048;-64
2021/06/27 11:42:22;;;;;;;7.28;6.57;;;25.30;61.10;;;;;;4922209;29;20130;-65
2021/06/27 11:45:16;;;;;;;8.20;6.68;;;25.30;61.20;;;;;;4920515;29;20155;-65
2021/06/27 11:47:50;;;;;;;;;;;25.30;60.80;;;;;;4923645;29;20047;-64
2021/06/27 11:50:20;;;;;;;7.60;6.43;;;25.30;61.70;;;;;;4906492;29;20013;-64
2021/06/27 11:52:51;;;;;;;8.57;7.53;;;25.30;61.70;;;;;;4922358;29;20084;-64
2021/06/27 11:55:17;;;;;;;8.43;7.60;;;25.30;61.80;;;;;;4924023;29;20508;-64
2021/06/27 11:57:43;;;;;;;7.32;6.63;;;25.30;61.30;;;;;;4942335;29;20051;-64
2021/06/27 12:00:11;;;;;;;7.18;6.57;;;25.40;61.00;;;;;;4942095;29;20047;-64
2021/06/27 12:02:37;;;;;;;7.55;6.50;;;25.40;60.80;;;;;;4908150;29;20055;-65
2021/06/27 12:05:15;;;;;;;9.73;8.82;;;25.40;61.20;;;;;;4940054;29;20045;-64
2021/06/27 12:07:44;;;;;;;9.25;7.40;;;25.30;61.20;;;;;;4939146;29;20044;-64
2021/06/27 12:10:16;;;;;;;11.30;8.73;;;25.20;62.00;;;;;;4941728;29;20043;-64
2021/06/27 12:12:42;;;;;;;10.70;8.35;;;25.20;61.60;;;;;;4942549;29;20089;-64
2021/06/27 12:15:17;;;;;;;9.35;8.48;;;25.10;61.60;;;;;;4941486;29;20396;-64
2021/06/27 12:17:48;;;;;;;8.50;7.72;;;25.10;61.80;;;;;;4924604;29;20035;-65
2021/06/27 12:20:17;;;;;;;9.60;8.60;;;25.10;61.30;;;;;;4940608;29;20051;-65
2021/06/27 12:23:00;;;;;;;10.13;7.90;;;25.00;61.30;;;;;;4940278;29;20123;-67
2021/06/27 12:25:34;;;;;;;9.40;8.45;;;25.00;61.70;;;;;;4942655;29;20094;-67
2021/06/27 12:28:03;;;;;;;8.57;7.75;;;25.00;62.30;;;;;;4940546;29;20213;-64
2021/06/27 12:30:38;;;;;;;8.00;7.20;;;25.00;61.90;;;;;;4940393;29;20043;-66
2021/06/27 12:33:09;;;;;;;9.30;7.07;;;25.10;62.00;;;;;;4927378;29;20139;-66
2021/06/27 12:35:39;;;;;;;8.23;6.82;;;25.10;61.70;;;;;;4942316;29;20039;-65
2021/06/27 12:38:06;;;;;;;9.32;8.43;;;25.30;61.50;;;;;;4940788;29;20039;-64